sensor_id;sensor_type;location;lat;lon;timestamp;P1;durP1;ratioP1;P2;durP2;ratioP2
61756;SDS011;57225;61.460;24.060;2023-03-01T00:00:53;13.57;;;1.73;;
61756;SDS011;57225;61.460;24.060;2023-03-01T00:03:37;6.32;;;1.00;;
61756;SDS011;57225;61.460;24.060;2023-03-01T00:06:22;11.00;;;1.30;;
61756;SDS011;57225;61.460;24.060;2023-03-01T00:09:07;10.90;;;1.70;;
61756;SDS011;57225;61.460;24.060;2023-03-01T00:11:51;14.48;;;1.70;;
61756;SDS011;57225;61.460;24.060;2023-03-01T00:14:36;16.55;;;1.88;;
61756;SDS011;57225;61.460;24.060;2023-03-01T00:17:20;14.23;;;2.22;;
61756;SDS011;57225;61.460;24.060;2023-03-01T00:20:05;11.13;;;1.60;;
61756;SDS011;57225;61.460;24.060;2023-03-01T00:22:54;23.63;;;3.47;;
61756;SDS011;57225;61.460;24.060;2023-03-01T00:25:42;9.95;;;1.95;;
61756;SDS011;57225;61.460;24.060;2023-03-01T00:28:26;8.45;;;1.23;;
61756;SDS011;57225;61.460;24.060;2023-03-01T00:31:15;13.75;;;1.95;;
61756;SDS011;57225;61.460;24.060;2023-03-01T00:34:02;14.68;;;1.80;;
61756;SDS011;57225;61.460;24.060;2023-03-01T00:36:47;7.97;;;1.17;;
61756;SDS011;57225;61.460;24.060;2023-03-01T00:39:32;9.27;;;1.52;;
61756;SDS011;57225;61.460;24.060;2023-03-01T00:42:16;11.30;;;1.15;;
61756;SDS011;57225;61.460;24.060;2023-03-01T00:45:01;14.85;;;1.55;;
61756;SDS011;57225;61.460;24.060;2023-03-01T00:47:45;6.07;;;1.17;;
61756;SDS011;57225;61.460;24.060;2023-03-01T00:50:30;7.82;;;1.23;;
61756;SDS011;57225;61.460;24.060;2023-03-01T00:53:15;16.33;;;1.83;;
61756;SDS011;57225;61.460;24.060;2023-03-01T00:56:00;9.10;;;1.35;;
61756;SDS011;57225;61.460;24.060;2023-03-01T00:58:44;13.13;;;1.38;;
61756;SDS011;57225;61.460;24.060;2023-03-01T01:01:29;7.82;;;1.08;;
61756;SDS011;57225;61.460;24.060;2023-03-01T01:04:14;15.85;;;1.70;;
61756;SDS011;57225;61.460;24.060;2023-03-01T01:06:59;13.82;;;1.40;;
61756;SDS011;57225;61.460;24.060;2023-03-01T01:09:43;7.15;;;1.35;;
61756;SDS011;57225;61.460;24.060;2023-03-01T01:12:27;11.27;;;1.55;;
61756;SDS011;57225;61.460;24.060;2023-03-01T01:15:12;14.77;;;2.00;;
61756;SDS011;57225;61.460;24.060;2023-03-01T01:18:00;12.32;;;1.38;;
61756;SDS011;57225;61.460;24.060;2023-03-01T01:20:50;18.17;;;1.90;;
61756;SDS011;57225;61.460;24.060;2023-03-01T01:23:34;8.40;;;1.27;;
61756;SDS011;57225;61.460;24.060;2023-03-01T01:26:24;11.20;;;1.52;;
61756;SDS011;57225;61.460;24.060;2023-03-01T01:29:11;9.07;;;1.40;;
61756;SDS011;57225;61.460;24.060;2023-03-01T01:31:56;10.57;;;1.60;;
61756;SDS011;57225;61.460;24.060;2023-03-01T01:34:40;19.17;;;1.50;;
61756;SDS011;57225;61.460;24.060;2023-03-01T01:37:25;13.98;;;1.60;;
61756;SDS011;57225;61.460;24.060;2023-03-01T01:40:15;14.10;;;1.33;;
61756;SDS011;57225;61.460;24.060;2023-03-01T01:42:59;10.20;;;2.03;;
61756;SDS011;57225;61.460;24.060;2023-03-01T01:45:44;15.18;;;1.48;;
61756;SDS011;57225;61.460;24.060;2023-03-01T01:48:32;10.90;;;1.25;;
61756;SDS011;57225;61.460;24.060;2023-03-01T01:51:30;16.48;;;1.77;;
61756;SDS011;57225;61.460;24.060;2023-03-01T01:54:25;12.80;;;1.75;;
61756;SDS011;57225;61.460;24.060;2023-03-01T01:57:15;12.27;;;1.63;;
61756;SDS011;57225;61.460;24.060;2023-03-01T02:00:07;11.05;;;1.35;;
61756;SDS011;57225;61.460;24.060;2023-03-01T02:02:59;10.35;;;1.58;;
61756;SDS011;57225;61.460;24.060;2023-03-01T02:08:48;12.55;;;1.65;;
61756;SDS011;57225;61.460;24.060;2023-03-01T02:11:34;12.07;;;1.88;;
61756;SDS011;57225;61.460;24.060;2023-03-01T02:14:21;6.75;;;1.40;;
61756;SDS011;57225;61.460;24.060;2023-03-01T02:17:05;20.25;;;1.45;;
61756;SDS011;57225;61.460;24.060;2023-03-01T02:22:55;10.63;;;1.92;;
61756;SDS011;57225;61.460;24.060;2023-03-01T02:25:47;10.68;;;1.40;;
61756;SDS011;57225;61.460;24.060;2023-03-01T02:28:36;10.00;;;1.02;;
61756;SDS011;57225;61.460;24.060;2023-03-01T02:31:23;12.18;;;1.33;;
61756;SDS011;57225;61.460;24.060;2023-03-01T02:34:26;10.98;;;1.40;;
61756;SDS011;57225;61.460;24.060;2023-03-01T02:37:13;7.50;;;0.98;;
61756;SDS011;57225;61.460;24.060;2023-03-01T02:40:05;12.88;;;1.30;;
61756;SDS011;57225;61.460;24.060;2023-03-01T02:42:58;10.15;;;1.25;;
61756;SDS011;57225;61.460;24.060;2023-03-01T02:45:47;8.77;;;1.35;;
61756;SDS011;57225;61.460;24.060;2023-03-01T02:48:44;9.18;;;1.38;;
61756;SDS011;57225;61.460;24.060;2023-03-01T02:54:47;8.93;;;1.52;;
61756;SDS011;57225;61.460;24.060;2023-03-01T02:57:38;3.97;;;1.10;;
61756;SDS011;57225;61.460;24.060;2023-03-01T03:00:30;11.68;;;1.30;;
61756;SDS011;57225;61.460;24.060;2023-03-01T03:03:23;10.93;;;1.30;;
61756;SDS011;57225;61.460;24.060;2023-03-01T03:06:07;12.75;;;1.35;;
61756;SDS011;57225;61.460;24.060;2023-03-01T03:08:52;6.95;;;1.15;;
61756;SDS011;57225;61.460;24.060;2023-03-01T03:11:36;8.90;;;0.93;;
61756;SDS011;57225;61.460;24.060;2023-03-01T03:14:22;4.78;;;0.90;;
61756;SDS011;57225;61.460;24.060;2023-03-01T03:17:07;4.55;;;1.05;;
61756;SDS011;57225;61.460;24.060;2023-03-01T03:19:51;12.57;;;1.35;;
61756;SDS011;57225;61.460;24.060;2023-03-01T03:22:36;8.52;;;0.88;;
61756;SDS011;57225;61.460;24.060;2023-03-01T03:25:22;10.48;;;1.15;;
61756;SDS011;57225;61.460;24.060;2023-03-01T03:28:07;5.95;;;1.13;;
61756;SDS011;57225;61.460;24.060;2023-03-01T03:30:54;10.85;;;1.40;;
61756;SDS011;57225;61.460;24.060;2023-03-01T03:33:38;7.10;;;0.90;;
61756;SDS011;57225;61.460;24.060;2023-03-01T03:36:23;6.32;;;1.20;;
61756;SDS011;57225;61.460;24.060;2023-03-01T03:39:08;4.90;;;0.80;;
61756;SDS011;57225;61.460;24.060;2023-03-01T03:41:53;10.98;;;1.13;;
61756;SDS011;57225;61.460;24.060;2023-03-01T03:44:37;4.30;;;0.75;;
61756;SDS011;57225;61.460;24.060;2023-03-01T03:47:22;8.52;;;1.10;;
61756;SDS011;57225;61.460;24.060;2023-03-01T03:50:06;8.73;;;1.02;;
61756;SDS011;57225;61.460;24.060;2023-03-01T03:52:54;8.77;;;1.27;;
61756;SDS011;57225;61.460;24.060;2023-03-01T03:55:39;10.27;;;2.03;;
61756;SDS011;57225;61.460;24.060;2023-03-01T03:58:23;12.35;;;3.67;;
61756;SDS011;57225;61.460;24.060;2023-03-01T04:01:08;7.65;;;1.50;;
61756;SDS011;57225;61.460;24.060;2023-03-01T04:03:53;8.75;;;1.45;;
61756;SDS011;57225;61.460;24.060;2023-03-01T04:06:38;7.38;;;1.27;;
61756;SDS011;57225;61.460;24.060;2023-03-01T04:09:22;12.13;;;1.70;;
61756;SDS011;57225;61.460;24.060;2023-03-01T04:12:07;6.15;;;1.20;;
61756;SDS011;57225;61.460;24.060;2023-03-01T04:14:51;7.55;;;1.70;;
61756;SDS011;57225;61.460;24.060;2023-03-01T04:17:36;13.52;;;1.00;;
61756;SDS011;57225;61.460;24.060;2023-03-01T04:20:22;5.82;;;0.73;;
61756;SDS011;57225;61.460;24.060;2023-03-01T04:23:27;7.15;;;0.90;;
61756;SDS011;57225;61.460;24.060;2023-03-01T04:26:12;8.02;;;1.20;;
61756;SDS011;57225;61.460;24.060;2023-03-01T04:28:57;7.20;;;1.00;;
61756;SDS011;57225;61.460;24.060;2023-03-01T04:31:41;6.32;;;0.77;;
61756;SDS011;57225;61.460;24.060;2023-03-01T04:34:26;11.02;;;1.20;;
61756;SDS011;57225;61.460;24.060;2023-03-01T04:37:10;5.32;;;1.00;;
61756;SDS011;57225;61.460;24.060;2023-03-01T04:39:55;4.10;;;0.95;;
61756;SDS011;57225;61.460;24.060;2023-03-01T04:42:39;5.22;;;1.23;;
61756;SDS011;57225;61.460;24.060;2023-03-01T04:45:23;5.38;;;1.20;;
61756;SDS011;57225;61.460;24.060;2023-03-01T04:48:08;7.00;;;1.10;;
61756;SDS011;57225;61.460;24.060;2023-03-01T04:50:52;14.10;;;1.58;;
61756;SDS011;57225;61.460;24.060;2023-03-01T04:53:37;10.32;;;1.35;;
61756;SDS011;57225;61.460;24.060;2023-03-01T04:56:21;4.68;;;1.00;;
61756;SDS011;57225;61.460;24.060;2023-03-01T04:59:06;5.53;;;1.20;;
61756;SDS011;57225;61.460;24.060;2023-03-01T05:01:54;5.95;;;1.25;;
61756;SDS011;57225;61.460;24.060;2023-03-01T05:04:39;3.70;;;1.00;;
61756;SDS011;57225;61.460;24.060;2023-03-01T05:07:24;6.60;;;1.02;;
61756;SDS011;57225;61.460;24.060;2023-03-01T05:10:10;5.93;;;0.95;;
61756;SDS011;57225;61.460;24.060;2023-03-01T05:12:54;8.38;;;1.58;;
61756;SDS011;57225;61.460;24.060;2023-03-01T05:15:41;3.78;;;1.08;;
61756;SDS011;57225;61.460;24.060;2023-03-01T05:18:26;5.47;;;1.10;;
61756;SDS011;57225;61.460;24.060;2023-03-01T05:21:13;10.77;;;1.35;;
61756;SDS011;57225;61.460;24.060;2023-03-01T05:23:59;8.40;;;1.23;;
61756;SDS011;57225;61.460;24.060;2023-03-01T05:26:44;10.00;;;1.15;;
61756;SDS011;57225;61.460;24.060;2023-03-01T05:29:29;6.43;;;1.38;;
61756;SDS011;57225;61.460;24.060;2023-03-01T05:32:15;17.02;;;4.88;;
61756;SDS011;57225;61.460;24.060;2023-03-01T05:35:00;14.52;;;4.35;;
61756;SDS011;57225;61.460;24.060;2023-03-01T05:37:48;2.88;;;1.40;;
61756;SDS011;57225;61.460;24.060;2023-03-01T05:40:33;6.32;;;1.00;;
61756;SDS011;57225;61.460;24.060;2023-03-01T05:43:18;4.65;;;1.00;;
61756;SDS011;57225;61.460;24.060;2023-03-01T05:46:02;5.13;;;0.88;;
61756;SDS011;57225;61.460;24.060;2023-03-01T05:48:46;7.32;;;1.02;;
61756;SDS011;57225;61.460;24.060;2023-03-01T05:51:32;8.57;;;2.75;;
61756;SDS011;57225;61.460;24.060;2023-03-01T05:54:18;4.75;;;0.63;;
61756;SDS011;57225;61.460;24.060;2023-03-01T05:57:05;5.40;;;0.90;;
61756;SDS011;57225;61.460;24.060;2023-03-01T05:59:50;6.63;;;1.08;;
61756;SDS011;57225;61.460;24.060;2023-03-01T06:02:34;10.18;;;1.23;;
61756;SDS011;57225;61.460;24.060;2023-03-01T06:05:19;5.03;;;0.77;;
61756;SDS011;57225;61.460;24.060;2023-03-01T06:08:03;7.32;;;1.20;;
61756;SDS011;57225;61.460;24.060;2023-03-01T06:10:48;11.45;;;1.15;;
61756;SDS011;57225;61.460;24.060;2023-03-01T06:13:33;7.45;;;1.13;;
61756;SDS011;57225;61.460;24.060;2023-03-01T06:16:17;5.38;;;0.93;;
61756;SDS011;57225;61.460;24.060;2023-03-01T06:19:01;6.72;;;1.08;;
61756;SDS011;57225;61.460;24.060;2023-03-01T06:21:46;9.48;;;1.25;;
61756;SDS011;57225;61.460;24.060;2023-03-01T06:24:30;5.43;;;1.02;;
61756;SDS011;57225;61.460;24.060;2023-03-01T06:27:15;4.45;;;0.82;;
61756;SDS011;57225;61.460;24.060;2023-03-01T06:29:59;9.07;;;0.98;;
61756;SDS011;57225;61.460;24.060;2023-03-01T06:32:44;15.70;;;1.77;;
61756;SDS011;57225;61.460;24.060;2023-03-01T06:35:28;7.60;;;1.02;;
61756;SDS011;57225;61.460;24.060;2023-03-01T06:56:01;4.05;;;0.90;;
61756;SDS011;57225;61.460;24.060;2023-03-01T06:58:46;5.03;;;0.88;;
61756;SDS011;57225;61.460;24.060;2023-03-01T07:01:30;9.00;;;1.75;;
61756;SDS011;57225;61.460;24.060;2023-03-01T07:04:15;5.45;;;1.75;;
61756;SDS011;57225;61.460;24.060;2023-03-01T07:07:00;7.25;;;1.50;;
61756;SDS011;57225;61.460;24.060;2023-03-01T07:09:45;3.53;;;1.27;;
61756;SDS011;57225;61.460;24.060;2023-03-01T07:12:29;7.53;;;0.85;;
61756;SDS011;57225;61.460;24.060;2023-03-01T07:15:14;6.57;;;0.70;;
61756;SDS011;57225;61.460;24.060;2023-03-01T07:17:58;6.13;;;0.85;;
61756;SDS011;57225;61.460;24.060;2023-03-01T07:20:43;5.13;;;1.00;;
61756;SDS011;57225;61.460;24.060;2023-03-01T07:23:27;3.65;;;0.75;;
61756;SDS011;57225;61.460;24.060;2023-03-01T07:26:12;4.60;;;0.93;;
61756;SDS011;57225;61.460;24.060;2023-03-01T07:28:58;7.07;;;0.93;;
61756;SDS011;57225;61.460;24.060;2023-03-01T07:31:44;7.72;;;1.08;;
61756;SDS011;57225;61.460;24.060;2023-03-01T07:34:28;6.18;;;1.00;;
61756;SDS011;57225;61.460;24.060;2023-03-01T07:37:13;2.03;;;0.70;;
61756;SDS011;57225;61.460;24.060;2023-03-01T07:39:57;4.30;;;1.25;;
61756;SDS011;57225;61.460;24.060;2023-03-01T07:42:42;3.60;;;0.80;;
61756;SDS011;57225;61.460;24.060;2023-03-01T07:45:26;5.30;;;1.00;;
61756;SDS011;57225;61.460;24.060;2023-03-01T07:48:11;3.63;;;0.88;;
61756;SDS011;57225;61.460;24.060;2023-03-01T07:50:59;4.00;;;0.82;;
61756;SDS011;57225;61.460;24.060;2023-03-01T07:53:47;7.32;;;0.80;;
61756;SDS011;57225;61.460;24.060;2023-03-01T07:56:32;5.88;;;0.93;;
61756;SDS011;57225;61.460;24.060;2023-03-01T07:59:16;3.17;;;0.70;;
61756;SDS011;57225;61.460;24.060;2023-03-01T08:02:00;4.18;;;1.05;;
61756;SDS011;57225;61.460;24.060;2023-03-01T08:04:45;4.38;;;1.00;;
61756;SDS011;57225;61.460;24.060;2023-03-01T08:07:29;5.80;;;0.90;;
61756;SDS011;57225;61.460;24.060;2023-03-01T08:10:14;6.32;;;0.70;;
61756;SDS011;57225;61.460;24.060;2023-03-01T08:12:58;1.45;;;0.63;;
61756;SDS011;57225;61.460;24.060;2023-03-01T08:15:43;2.58;;;0.80;;
61756;SDS011;57225;61.460;24.060;2023-03-01T08:18:27;5.38;;;1.13;;
61756;SDS011;57225;61.460;24.060;2023-03-01T08:21:13;3.60;;;0.82;;
61756;SDS011;57225;61.460;24.060;2023-03-01T08:23:59;3.72;;;0.85;;
61756;SDS011;57225;61.460;24.060;2023-03-01T08:26:44;2.40;;;0.85;;
61756;SDS011;57225;61.460;24.060;2023-03-01T08:29:32;3.53;;;0.68;;
61756;SDS011;57225;61.460;24.060;2023-03-01T08:32:17;3.92;;;1.10;;
61756;SDS011;57225;61.460;24.060;2023-03-01T08:35:02;0.93;;;0.57;;
61756;SDS011;57225;61.460;24.060;2023-03-01T08:37:46;1.05;;;0.38;;
61756;SDS011;57225;61.460;24.060;2023-03-01T08:40:31;8.07;;;0.75;;
61756;SDS011;57225;61.460;24.060;2023-03-01T08:43:16;5.38;;;1.17;;
61756;SDS011;57225;61.460;24.060;2023-03-01T08:46:00;2.90;;;0.45;;
61756;SDS011;57225;61.460;24.060;2023-03-01T08:48:45;3.85;;;0.93;;
61756;SDS011;57225;61.460;24.060;2023-03-01T08:51:29;2.40;;;0.30;;
61756;SDS011;57225;61.460;24.060;2023-03-01T08:54:17;2.50;;;0.40;;
61756;SDS011;57225;61.460;24.060;2023-03-01T08:57:03;3.70;;;0.80;;
61756;SDS011;57225;61.460;24.060;2023-03-01T08:59:48;5.13;;;0.52;;
61756;SDS011;57225;61.460;24.060;2023-03-01T09:02:33;2.45;;;0.40;;
61756;SDS011;57225;61.460;24.060;2023-03-01T09:05:17;2.42;;;0.40;;
61756;SDS011;57225;61.460;24.060;2023-03-01T09:08:02;2.10;;;0.75;;
61756;SDS011;57225;61.460;24.060;2023-03-01T09:10:47;1.13;;;0.60;;
61756;SDS011;57225;61.460;24.060;2023-03-01T09:13:32;4.70;;;0.80;;
61756;SDS011;57225;61.460;24.060;2023-03-01T09:16:18;2.10;;;0.80;;
61756;SDS011;57225;61.460;24.060;2023-03-01T09:19:03;2.83;;;0.80;;
61756;SDS011;57225;61.460;24.060;2023-03-01T09:21:47;2.03;;;0.80;;
61756;SDS011;57225;61.460;24.060;2023-03-01T09:24:39;3.70;;;0.90;;
61756;SDS011;57225;61.460;24.060;2023-03-01T09:27:24;1.88;;;0.47;;
61756;SDS011;57225;61.460;24.060;2023-03-01T09:30:09;1.98;;;0.70;;
61756;SDS011;57225;61.460;24.060;2023-03-01T09:32:55;1.50;;;0.80;;
61756;SDS011;57225;61.460;24.060;2023-03-01T09:35:40;3.30;;;0.50;;
61756;SDS011;57225;61.460;24.060;2023-03-01T09:44:03;1.55;;;0.50;;
61756;SDS011;57225;61.460;24.060;2023-03-01T09:46:49;2.07;;;0.67;;
61756;SDS011;57225;61.460;24.060;2023-03-01T09:49:35;2.45;;;0.60;;
61756;SDS011;57225;61.460;24.060;2023-03-01T10:01:59;7.38;;;0.85;;
61756;SDS011;57225;61.460;24.060;2023-03-01T10:05:00;4.20;;;0.80;;
61756;SDS011;57225;61.460;24.060;2023-03-01T10:10:54;1.38;;;0.55;;
61756;SDS011;57225;61.460;24.060;2023-03-01T10:13:45;7.00;;;0.60;;
61756;SDS011;57225;61.460;24.060;2023-03-01T10:16:44;2.42;;;0.63;;
61756;SDS011;57225;61.460;24.060;2023-03-01T10:19:39;0.85;;;0.50;;
61756;SDS011;57225;61.460;24.060;2023-03-01T10:22:28;1.90;;;0.50;;
61756;SDS011;57225;61.460;24.060;2023-03-01T10:25:15;0.40;;;0.20;;
61756;SDS011;57225;61.460;24.060;2023-03-01T10:28:06;2.03;;;0.47;;
61756;SDS011;57225;61.460;24.060;2023-03-01T10:31:00;1.80;;;0.88;;
61756;SDS011;57225;61.460;24.060;2023-03-01T10:33:44;1.60;;;0.40;;
61756;SDS011;57225;61.460;24.060;2023-03-01T10:36:32;2.58;;;0.50;;
61756;SDS011;57225;61.460;24.060;2023-03-01T10:39:18;1.58;;;0.38;;
61756;SDS011;57225;61.460;24.060;2023-03-01T10:42:09;3.22;;;0.52;;
61756;SDS011;57225;61.460;24.060;2023-03-01T10:48:25;0.85;;;0.22;;
61756;SDS011;57225;61.460;24.060;2023-03-01T10:51:16;1.80;;;0.50;;
61756;SDS011;57225;61.460;24.060;2023-03-01T10:54:03;2.15;;;0.40;;
61756;SDS011;57225;61.460;24.060;2023-03-01T10:56:51;3.50;;;0.52;;
61756;SDS011;57225;61.460;24.060;2023-03-01T10:59:38;1.90;;;0.70;;
61756;SDS011;57225;61.460;24.060;2023-03-01T11:02:28;2.60;;;0.47;;
61756;SDS011;57225;61.460;24.060;2023-03-01T11:07:59;4.45;;;0.40;;
61756;SDS011;57225;61.460;24.060;2023-03-01T11:10:46;1.95;;;0.40;;
61756;SDS011;57225;61.460;24.060;2023-03-01T11:13:31;5.00;;;0.68;;
61756;SDS011;57225;61.460;24.060;2023-03-01T11:16:16;1.00;;;0.20;;
61756;SDS011;57225;61.460;24.060;2023-03-01T11:19:16;4.70;;;0.30;;
61756;SDS011;57225;61.460;24.060;2023-03-01T11:24:58;1.58;;;0.30;;
61756;SDS011;57225;61.460;24.060;2023-03-01T11:27:44;2.38;;;0.47;;
61756;SDS011;57225;61.460;24.060;2023-03-01T11:30:43;1.57;;;0.47;;
61756;SDS011;57225;61.460;24.060;2023-03-01T11:33:59;1.58;;;0.32;;
61756;SDS011;57225;61.460;24.060;2023-03-01T11:36:52;3.03;;;0.60;;
61756;SDS011;57225;61.460;24.060;2023-03-01T11:39:45;3.05;;;0.70;;
61756;SDS011;57225;61.460;24.060;2023-03-01T11:43:37;2.20;;;0.40;;
61756;SDS011;57225;61.460;24.060;2023-03-01T11:58:23;1.77;;;0.30;;
61756;SDS011;57225;61.460;24.060;2023-03-01T12:13:59;1.25;;;0.40;;
61756;SDS011;57225;61.460;24.060;2023-03-01T12:26:28;0.95;;;0.50;;
61756;SDS011;57225;61.460;24.060;2023-03-01T12:38:19;4.88;;;1.25;;
61756;SDS011;57225;61.460;24.060;2023-03-01T12:53:22;2.25;;;0.82;;
61756;SDS011;57225;61.460;24.060;2023-03-01T12:56:11;2.28;;;0.50;;
61756;SDS011;57225;61.460;24.060;2023-03-01T12:59:07;4.18;;;0.63;;
61756;SDS011;57225;61.460;24.060;2023-03-01T13:02:04;1.90;;;0.47;;
61756;SDS011;57225;61.460;24.060;2023-03-01T13:08:48;6.65;;;0.68;;
61756;SDS011;57225;61.460;24.060;2023-03-01T13:11:50;2.30;;;0.50;;
61756;SDS011;57225;61.460;24.060;2023-03-01T13:14:35;4.20;;;0.40;;
61756;SDS011;57225;61.460;24.060;2023-03-01T13:17:33;1.73;;;0.47;;
61756;SDS011;57225;61.460;24.060;2023-03-01T13:28:52;2.63;;;0.57;;
61756;SDS011;57225;61.460;24.060;2023-03-01T13:34:40;2.90;;;0.47;;
61756;SDS011;57225;61.460;24.060;2023-03-01T13:37:34;4.03;;;0.57;;
61756;SDS011;57225;61.460;24.060;2023-03-01T13:46:22;3.70;;;0.47;;
61756;SDS011;57225;61.460;24.060;2023-03-01T13:49:09;3.10;;;0.60;;
61756;SDS011;57225;61.460;24.060;2023-03-01T13:51:58;2.60;;;0.52;;
61756;SDS011;57225;61.460;24.060;2023-03-01T13:54:42;3.13;;;0.55;;
61756;SDS011;57225;61.460;24.060;2023-03-01T13:57:29;3.83;;;0.80;;
61756;SDS011;57225;61.460;24.060;2023-03-01T14:00:37;2.85;;;0.40;;
61756;SDS011;57225;61.460;24.060;2023-03-01T14:03:23;6.47;;;0.50;;
61756;SDS011;57225;61.460;24.060;2023-03-01T14:06:14;3.53;;;0.65;;
61756;SDS011;57225;61.460;24.060;2023-03-01T14:09:14;2.08;;;0.45;;
61756;SDS011;57225;61.460;24.060;2023-03-01T14:21:09;6.32;;;0.90;;
61756;SDS011;57225;61.460;24.060;2023-03-01T14:23:57;3.45;;;0.70;;
61756;SDS011;57225;61.460;24.060;2023-03-01T14:26:43;5.78;;;0.68;;
61756;SDS011;57225;61.460;24.060;2023-03-01T14:29:33;3.85;;;1.00;;
61756;SDS011;57225;61.460;24.060;2023-03-01T14:38:23;3.72;;;0.70;;
61756;SDS011;57225;61.460;24.060;2023-03-01T14:41:18;4.93;;;1.10;;
61756;SDS011;57225;61.460;24.060;2023-03-01T14:44:07;2.28;;;0.60;;
61756;SDS011;57225;61.460;24.060;2023-03-01T14:46:59;4.28;;;0.70;;
61756;SDS011;57225;61.460;24.060;2023-03-01T14:49:46;3.35;;;0.73;;
61756;SDS011;57225;61.460;24.060;2023-03-01T14:52:35;3.17;;;0.77;;
61756;SDS011;57225;61.460;24.060;2023-03-01T14:55:25;6.18;;;0.98;;
61756;SDS011;57225;61.460;24.060;2023-03-01T14:58:14;3.80;;;0.50;;
61756;SDS011;57225;61.460;24.060;2023-03-01T15:01:00;2.83;;;0.43;;
61756;SDS011;57225;61.460;24.060;2023-03-01T15:03:48;2.13;;;0.63;;
61756;SDS011;57225;61.460;24.060;2023-03-01T15:06:33;2.85;;;0.60;;
61756;SDS011;57225;61.460;24.060;2023-03-01T15:09:18;2.70;;;0.45;;
61756;SDS011;57225;61.460;24.060;2023-03-01T15:15:29;2.75;;;0.50;;
61756;SDS011;57225;61.460;24.060;2023-03-01T15:21:07;4.35;;;1.02;;
61756;SDS011;57225;61.460;24.060;2023-03-01T15:26:56;6.00;;;1.17;;
61756;SDS011;57225;61.460;24.060;2023-03-01T15:29:52;3.50;;;1.15;;
61756;SDS011;57225;61.460;24.060;2023-03-01T15:32:39;3.83;;;0.93;;
61756;SDS011;57225;61.460;24.060;2023-03-01T15:35:33;4.35;;;0.80;;
61756;SDS011;57225;61.460;24.060;2023-03-01T15:38:33;3.55;;;0.90;;
61756;SDS011;57225;61.460;24.060;2023-03-01T15:41:45;3.22;;;0.73;;
61756;SDS011;57225;61.460;24.060;2023-03-01T15:44:33;2.67;;;0.77;;
61756;SDS011;57225;61.460;24.060;2023-03-01T15:47:29;3.13;;;0.95;;
61756;SDS011;57225;61.460;24.060;2023-03-01T15:50:24;4.43;;;0.82;;
61756;SDS011;57225;61.460;24.060;2023-03-01T15:53:11;3.78;;;0.68;;
61756;SDS011;57225;61.460;24.060;2023-03-01T15:55:58;2.30;;;0.50;;
61756;SDS011;57225;61.460;24.060;2023-03-01T15:58:42;4.70;;;0.63;;
61756;SDS011;57225;61.460;24.060;2023-03-01T16:01:27;2.58;;;0.65;;
61756;SDS011;57225;61.460;24.060;2023-03-01T16:04:12;6.63;;;1.00;;
61756;SDS011;57225;61.460;24.060;2023-03-01T16:07:04;2.08;;;0.32;;
61756;SDS011;57225;61.460;24.060;2023-03-01T16:09:48;2.30;;;0.80;;
61756;SDS011;57225;61.460;24.060;2023-03-01T16:12:32;3.35;;;0.70;;
61756;SDS011;57225;61.460;24.060;2023-03-01T16:15:19;1.95;;;0.57;;
61756;SDS011;57225;61.460;24.060;2023-03-01T16:18:05;2.60;;;0.70;;
61756;SDS011;57225;61.460;24.060;2023-03-01T16:20:51;5.30;;;1.10;;
61756;SDS011;57225;61.460;24.060;2023-03-01T16:23:37;4.20;;;1.00;;
61756;SDS011;57225;61.460;24.060;2023-03-01T16:26:21;6.53;;;1.60;;
61756;SDS011;57225;61.460;24.060;2023-03-01T16:29:06;7.57;;;2.58;;
61756;SDS011;57225;61.460;24.060;2023-03-01T16:31:51;7.25;;;2.40;;
61756;SDS011;57225;61.460;24.060;2023-03-01T16:34:35;8.35;;;1.40;;
61756;SDS011;57225;61.460;24.060;2023-03-01T16:37:20;11.20;;;2.55;;
61756;SDS011;57225;61.460;24.060;2023-03-01T16:40:06;4.65;;;1.02;;
61756;SDS011;57225;61.460;24.060;2023-03-01T16:42:59;9.93;;;1.20;;
61756;SDS011;57225;61.460;24.060;2023-03-01T16:45:45;2.70;;;1.33;;
61756;SDS011;57225;61.460;24.060;2023-03-01T16:48:30;5.63;;;1.30;;
61756;SDS011;57225;61.460;24.060;2023-03-01T16:51:15;4.85;;;1.60;;
61756;SDS011;57225;61.460;24.060;2023-03-01T16:53:59;8.45;;;1.40;;
61756;SDS011;57225;61.460;24.060;2023-03-01T16:56:43;7.57;;;1.90;;
61756;SDS011;57225;61.460;24.060;2023-03-01T16:59:28;8.10;;;1.75;;
61756;SDS011;57225;61.460;24.060;2023-03-01T17:02:12;3.55;;;1.58;;
61756;SDS011;57225;61.460;24.060;2023-03-01T17:04:58;6.47;;;1.30;;
61756;SDS011;57225;61.460;24.060;2023-03-01T17:07:43;5.63;;;1.50;;
61756;SDS011;57225;61.460;24.060;2023-03-01T17:10:27;6.65;;;1.70;;
61756;SDS011;57225;61.460;24.060;2023-03-01T17:13:12;8.25;;;2.42;;
61756;SDS011;57225;61.460;24.060;2023-03-01T17:15:56;5.68;;;2.00;;
61756;SDS011;57225;61.460;24.060;2023-03-01T17:18:41;4.80;;;1.80;;
61756;SDS011;57225;61.460;24.060;2023-03-01T17:21:26;3.78;;;1.63;;
61756;SDS011;57225;61.460;24.060;2023-03-01T17:24:11;5.53;;;1.42;;
61756;SDS011;57225;61.460;24.060;2023-03-01T17:26:55;5.95;;;1.02;;
61756;SDS011;57225;61.460;24.060;2023-03-01T17:29:40;4.10;;;1.58;;
61756;SDS011;57225;61.460;24.060;2023-03-01T17:32:24;5.68;;;1.52;;
61756;SDS011;57225;61.460;24.060;2023-03-01T17:35:09;5.00;;;1.10;;
61756;SDS011;57225;61.460;24.060;2023-03-01T17:37:56;3.40;;;0.90;;
61756;SDS011;57225;61.460;24.060;2023-03-01T17:40:41;5.25;;;1.30;;
61756;SDS011;57225;61.460;24.060;2023-03-01T17:43:29;5.03;;;1.40;;
61756;SDS011;57225;61.460;24.060;2023-03-01T17:46:13;5.22;;;1.33;;
61756;SDS011;57225;61.460;24.060;2023-03-01T17:48:58;5.18;;;1.27;;
61756;SDS011;57225;61.460;24.060;2023-03-01T17:51:42;7.18;;;1.30;;
61756;SDS011;57225;61.460;24.060;2023-03-01T17:54:28;5.45;;;1.38;;
61756;SDS011;57225;61.460;24.060;2023-03-01T17:57:12;13.38;;;1.40;;
61756;SDS011;57225;61.460;24.060;2023-03-01T17:59:57;3.20;;;1.10;;
61756;SDS011;57225;61.460;24.060;2023-03-01T18:02:41;3.72;;;1.50;;
61756;SDS011;57225;61.460;24.060;2023-03-01T18:05:27;3.00;;;1.20;;
61756;SDS011;57225;61.460;24.060;2023-03-01T18:08:14;5.80;;;1.38;;
61756;SDS011;57225;61.460;24.060;2023-03-01T18:10:58;3.53;;;1.20;;
61756;SDS011;57225;61.460;24.060;2023-03-01T18:13:43;5.70;;;1.38;;
61756;SDS011;57225;61.460;24.060;2023-03-01T18:16:28;3.67;;;1.08;;
61756;SDS011;57225;61.460;24.060;2023-03-01T18:19:14;3.28;;;1.10;;
61756;SDS011;57225;61.460;24.060;2023-03-01T18:21:58;7.97;;;1.60;;
61756;SDS011;57225;61.460;24.060;2023-03-01T18:24:43;9.57;;;1.30;;
61756;SDS011;57225;61.460;24.060;2023-03-01T18:27:27;4.90;;;1.60;;
61756;SDS011;57225;61.460;24.060;2023-03-01T18:30:12;6.35;;;1.45;;
61756;SDS011;57225;61.460;24.060;2023-03-01T18:32:57;5.63;;;1.63;;
61756;SDS011;57225;61.460;24.060;2023-03-01T18:35:41;4.40;;;1.20;;
61756;SDS011;57225;61.460;24.060;2023-03-01T18:38:26;4.03;;;1.60;;
61756;SDS011;57225;61.460;24.060;2023-03-01T18:41:11;3.50;;;1.05;;
61756;SDS011;57225;61.460;24.060;2023-03-01T18:43:56;5.35;;;1.25;;
61756;SDS011;57225;61.460;24.060;2023-03-01T18:46:41;5.32;;;1.60;;
61756;SDS011;57225;61.460;24.060;2023-03-01T18:49:28;4.57;;;1.40;;
61756;SDS011;57225;61.460;24.060;2023-03-01T18:52:13;4.75;;;1.65;;
61756;SDS011;57225;61.460;24.060;2023-03-01T18:54:57;3.95;;;0.93;;
61756;SDS011;57225;61.460;24.060;2023-03-01T18:57:42;4.18;;;1.10;;
61756;SDS011;57225;61.460;24.060;2023-03-01T19:00:26;4.03;;;1.30;;
61756;SDS011;57225;61.460;24.060;2023-03-01T19:03:10;5.45;;;1.20;;